Risingsun, Ohio
Current Conditions -  °F | °C
As of 10:08 PM on Thursday 27 Nov 2014 (Local Time) from KTDZ Reporting Station
Overcast Overcast  
Wind Chill: -8°   Ceiling: 6000
Heat Index: -2°   Visibility: 10mi
Dew Point: -6°   Wind: 12mph
Humidity: 78%   Direction: 310°NW
Pressure: 30.31"   Gusts: NA
Location:  41.27°N, 83.42°W
Report Text: KTDZ 280308Z AUTO 31010KT 10SM FEW019 SCT029 OVC060 M02/M06 A3031 RMK AO2 T10221056 TSNO
Loading
Personal Weather Stations






























Interactive Weather Map New forecast layout! Learn more

10-Day Weather Forecast

Advertisements
Track Severe Weather on mobile